| time (UTC) | temp F | wind direction | speed MPH | gust MPH | rain 1hr in | rain 24hr in | rain mn in | humidity % | barometer mb |
| 20260504100203 | 49 | 90 | 3.0 | 5.0 | 0.00 | 0.00 | 0.00 | 68 | 985.4 |
| 20260504081704 | 48 | 88 | 3.0 | 5.0 | 0.00 | 0.00 | 0.00 | 74 | 985.7 |
| 20260504081204 | 48 | 92 | 3.0 | 3.0 | 0.00 | 0.00 | 0.00 | 74 | 985.7 |
| 20260504080703 | 48 | 95 | 2.0 | 3.0 | 0.00 | 0.00 | 0.00 | 73 | 985.8 |
| 20260504080203 | 48 | 89 | 3.0 | 7.0 | 0.00 | 0.00 | 0.00 | 73 | 985.7 |
| 20260504070204 | 47 | 81 | 3.0 | 5.0 | 0.00 | 0.00 | 0.00 | 72 | 985.8 |
| 20260504060204 | 47 | 88 | 3.0 | 6.0 | 0.00 | 0.00 | 0.00 | 68 | 985.9 |
| 20260504050704 | 48 | 86 | 3.0 | 5.0 | 0.00 | 0.00 | 0.00 | 59 | 985.9 |
| 20260504050204 | 48 | 93 | 3.0 | 5.0 | 0.00 | 0.00 | 0.00 | 58 | 985.9 |
| 20260504045703 | 48 | 85 | 2.0 | 5.0 | 0.00 | 0.00 | 0.00 | 57 | 985.9 |
| 20260504045203 | 48 | 105 | 2.0 | 5.0 | 0.00 | 0.00 | 0.00 | 55 | 986.0 |
| 20260504044703 | 48 | 57 | 2.0 | 3.0 | 0.00 | 0.00 | 0.00 | 54 | 986.0 |
| 20260504044203 | 48 | 88 | 3.0 | 5.0 | 0.00 | 0.00 | 0.00 | 53 | 986.1 |
| 20260504043704 | 48 | 88 | 3.0 | 6.0 | 0.00 | 0.00 | 0.00 | 52 | 986.2 |
| 20260504042703 | 48 | 91 | 3.0 | 5.0 | 0.00 | 0.00 | 0.00 | 51 | 986.2 |
| 20260504042204 | 48 | 73 | 5.0 | 7.0 | 0.00 | 0.00 | 0.00 | 50 | 986.2 |
| 20260504041704 | 48 | 95 | 3.0 | 3.0 | 0.00 | 0.00 | 0.00 | 51 | 986.1 |
| 20260504041204 | 48 | 88 | 2.0 | 3.0 | 0.00 | 0.00 | 0.00 | 50 | 986.1 |
| 20260504040703 | 48 | 84 | 3.0 | 5.0 | 0.00 | 0.00 | 0.00 | 50 | 986.1 |
| 20260504040203 | 48 | 88 | 4.0 | 6.0 | 0.00 | 0.00 | 0.00 | 49 | 986.1 |
| 20260504035704 | 48 | 91 | 5.0 | 6.0 | 0.00 | 0.00 | 0.00 | 48 | 986.0 |
| 20260504035204 | 47 | 83 | 5.0 | 6.0 | 0.00 | 0.00 | 0.00 | 48 | 986.0 |
| 20260504034703 | 46 | 88 | 2.0 | 5.0 | 0.00 | 0.00 | 0.00 | 54 | 986.0 |
| 20260504034204 | 46 | 91 | 2.0 | 5.0 | 0.00 | 0.00 | 0.00 | 54 | 986.0 |
| 20260504032704 | 44 | 88 | 1.0 | 2.0 | 0.00 | 0.00 | 0.00 | 58 | 986.1 |
| 20260504032204 | 44 | 93 | 0.0 | 3.0 | 0.00 | 0.00 | 0.00 | 62 | 986.1 |
| 20260504031204 | 45 | 86 | 0.0 | 1.0 | 0.00 | 0.00 | 0.00 | 52 | 986.0 |
| 20260504030704 | 45 | 108 | 0.0 | 1.0 | 0.00 | 0.00 | 0.00 | 52 | 986.0 |
| 20260504030204 | 46 | 107 | 0.0 | 1.0 | 0.00 | 0.00 | 0.00 | 53 | 986.0 |
| 20260504025203 | 46 | 73 | 0.0 | 1.0 | 0.00 | 0.00 | 0.00 | 50 | 986.0 |
| 20260504024703 | 46 | 123 | 1.0 | 2.0 | 0.00 | 0.00 | 0.00 | 49 | 986.0 |
| 20260504024203 | 45 | 85 | 1.0 | 2.0 | 0.00 | 0.00 | 0.00 | 50 | 986.1 |
| 20260504023703 | 45 | 98 | 1.0 | 2.0 | 0.00 | 0.00 | 0.00 | 49 | 986.2 |
| 20260504023203 | 44 | 92 | 0.0 | 2.0 | 0.00 | 0.00 | 0.00 | 53 | 986.2 |
| 20260504022704 | 44 | 135 | 1.0 | 2.0 | 0.00 | 0.00 | 0.00 | 53 | 986.2 |
| 20260504022203 | 44 | 95 | 0.0 | 2.0 | 0.00 | 0.00 | 0.00 | 52 | 986.2 |
| 20260504020703 | 43 | 110 | 1.0 | 2.0 | 0.00 | 0.00 | 0.00 | 53 | 986.3 |
| 20260504015203 | 44 | 88 | 0.0 | 3.0 | 0.00 | 0.00 | 0.00 | 60 | 986.4 |
| 20260504014704 | 44 | 85 | 1.0 | 2.0 | 0.00 | 0.00 | 0.00 | 53 | 986.3 |
| 20260504013703 | 43 | 318 | 2.0 | 3.0 | 0.00 | 0.00 | 0.00 | 55 | 986.3 |
| 20260504013203 | 42 | 76 | 1.0 | 2.0 | 0.00 | 0.00 | 0.00 | 56 | 986.3 |
| 20260504012703 | 41 | 117 | 0.0 | 2.0 | 0.00 | 0.00 | 0.00 | 61 | 986.1 |
| 20260504011703 | 41 | 42 | 0.0 | 1.0 | 0.00 | 0.00 | 0.00 | 61 | 986.1 |
| 20260504011204 | 41 | 82 | 0.0 | 1.0 | 0.00 | 0.00 | 0.00 | 64 | 986.1 |
| 20260504010704 | 42 | 174 | 2.0 | 3.0 | 0.00 | 0.00 | 0.00 | 63 | 986.1 |
| 20260504010203 | 43 | 97 | 1.0 | 2.0 | 0.00 | 0.00 | 0.00 | 59 | 985.9 |
| 20260504005703 | 43 | 93 | 0.0 | 2.0 | 0.00 | 0.00 | 0.00 | 59 | 985.8 |
| 20260504005204 | 43 | 88 | 0.0 | 1.0 | 0.00 | 0.00 | 0.00 | 59 | 985.7 |
| 20260504004704 | 43 | 75 | 1.0 | 1.0 | 0.00 | 0.00 | 0.00 | 59 | 985.6 |
| 20260504004204 | 43 | 90 | 0.0 | 1.0 | 0.00 | 0.00 | 0.00 | 58 | 985.6 |
| 20260504003704 | 43 | 128 | 0.0 | 1.0 | 0.00 | 0.00 | 0.00 | 59 | 985.5 |
| 20260504003203 | 44 | 110 | 0.0 | 1.0 | 0.00 | 0.00 | 0.00 | 58 | 985.5 |
| 20260504002204 | 45 | 169 | 0.0 | 1.0 | 0.00 | 0.00 | 0.00 | 56 | 985.4 |
| 20260504001703 | 45 | 169 | 1.0 | 2.0 | 0.00 | 0.00 | 0.00 | 55 | 985.3 |
| 20260504001204 | 46 | 265 | 1.0 | 2.0 | 0.00 | 0.00 | 0.00 | 54 | 985.3 |
| 20260504000703 | 46 | 113 | 1.0 | 2.0 | 0.00 | 0.00 | 0.00 | 54 | 985.2 |
| 20260503234704 | 49 | 186 | 2.0 | 6.0 | 0.00 | 0.00 | 0.00 | 46 | 985.0 |
| 20260503234203 | 49 | 255 | 0.0 | 2.0 | 0.00 | 0.00 | 0.00 | 46 | 985.0 |
| 20260503233704 | 49 | 239 | 2.0 | 5.0 | 0.00 | 0.00 | 0.00 | 46 | 984.9 |
| 20260503233204 | 50 | 119 | 0.0 | 2.0 | 0.00 | 0.00 | 0.00 | 45 | 984.9 |
| 20260503232704 | 50 | 213 | 1.0 | 3.0 | 0.00 | 0.00 | 0.00 | 44 | 984.9 |
| 20260503232204 | 50 | 219 | 2.0 | 6.0 | 0.00 | 0.00 | 0.00 | 43 | 984.9 |
| 20260503231703 | 50 | 237 | 4.0 | 8.0 | 0.00 | 0.00 | 0.00 | 42 | 984.8 |
| 20260503231203 | 51 | 213 | 3.0 | 8.0 | 0.00 | 0.00 | 0.00 | 42 | 984.8 |
| 20260503230704 | 51 | 140 | 1.0 | 3.0 | 0.00 | 0.00 | 0.00 | 42 | 984.8 |
| 20260503230204 | 51 | 107 | 2.0 | 8.0 | 0.00 | 0.00 | 0.00 | 42 | 984.8 |
| 20260503225704 | 51 | 108 | 2.0 | 7.0 | 0.00 | 0.00 | 0.00 | 43 | 984.8 |
| 20260503225204 | 51 | 152 | 2.0 | 7.0 | 0.00 | 0.00 | 0.00 | 44 | 984.8 |
| 20260503224203 | 52 | 97 | 2.0 | 5.0 | 0.00 | 0.00 | 0.00 | 42 | 984.8 |
| 20260503223703 | 52 | 198 | 2.0 | 7.0 | 0.00 | 0.00 | 0.00 | 42 | 984.9 |
| 20260503223203 | 52 | 171 | 2.0 | 9.0 | 0.00 | 0.00 | 0.00 | 43 | 984.9 |
| 20260503222703 | 51 | 149 | 2.0 | 7.0 | 0.00 | 0.00 | 0.00 | 43 | 984.9 |
| 20260503222204 | 51 | 108 | 3.0 | 9.0 | 0.00 | 0.00 | 0.00 | 44 | 984.9 |
| 20260503221703 | 52 | 205 | 2.0 | 5.0 | 0.00 | 0.00 | 0.00 | 46 | 984.9 |
| 20260503221204 | 53 | 99 | 1.0 | 3.0 | 0.00 | 0.00 | 0.00 | 45 | 984.9 |
| 20260503220703 | 53 | 117 | 2.0 | 3.0 | 0.00 | 0.00 | 0.00 | 45 | 984.9 |
| 20260503220204 | 52 | 118 | 2.0 | 5.0 | 0.00 | 0.00 | 0.00 | 46 | 984.9 |
| 20260503215704 | 52 | 207 | 1.0 | 3.0 | 0.00 | 0.00 | 0.00 | 46 | 984.9 |
| 20260503214703 | 52 | 184 | 3.0 | 7.0 | 0.00 | 0.00 | 0.00 | 46 | 984.8 |
| 20260503214203 | 52 | 153 | 1.0 | 5.0 | 0.00 | 0.00 | 0.00 | 45 | 984.7 |
| 20260503213704 | 52 | 134 | 1.0 | 3.0 | 0.00 | 0.00 | 0.00 | 45 | 984.7 |
| 20260503213203 | 52 | 228 | 1.0 | 5.0 | 0.00 | 0.00 | 0.00 | 45 | 984.7 |
| 20260503212204 | 51 | 190 | 1.0 | 5.0 | 0.00 | 0.00 | 0.00 | 46 | 984.8 |
| 20260503211703 | 51 | 248 | 2.0 | 5.0 | 0.00 | 0.00 | 0.00 | 46 | 984.8 |
| 20260503210203 | 51 | 101 | 2.0 | 5.0 | 0.00 | 0.00 | 0.00 | 46 | 984.8 |
| 20260503205703 | 51 | 92 | 3.0 | 6.0 | 0.00 | 0.00 | 0.00 | 47 | 984.8 |
| 20260503205204 | 51 | 132 | 2.0 | 6.0 | 0.00 | 0.00 | 0.00 | 47 | 984.9 |
| 20260503204703 | 51 | 193 | 2.0 | 3.0 | 0.00 | 0.00 | 0.00 | 47 | 984.9 |
| 20260503204204 | 50 | 127 | 1.0 | 3.0 | 0.00 | 0.00 | 0.00 | 47 | 984.9 |
| 20260503203204 | 50 | 95 | 2.0 | 6.0 | 0.00 | 0.00 | 0.00 | 47 | 985.0 |
| 20260503202703 | 50 | 255 | 1.0 | 5.0 | 0.00 | 0.00 | 0.00 | 47 | 984.9 |
| 20260503202203 | 50 | 88 | 2.0 | 6.0 | 0.00 | 0.00 | 0.00 | 47 | 985.0 |
| 20260503201204 | 51 | 78 | 2.0 | 7.0 | 0.00 | 0.00 | 0.00 | 46 | 985.0 |
| 20260503200703 | 51 | 199 | 3.0 | 7.0 | 0.00 | 0.00 | 0.00 | 45 | 985.0 |
| 20260503200204 | 50 | 117 | 3.0 | 5.0 | 0.00 | 0.00 | 0.00 | 47 | 985.0 |
| 20260503195704 | 50 | 99 | 2.0 | 7.0 | 0.00 | 0.00 | 0.00 | 47 | 985.1 |
| 20260503195203 | 50 | 244 | 0.0 | 6.0 | 0.00 | 0.00 | 0.00 | 47 | 985.3 |
| 20260503194703 | 49 | 68 | 2.0 | 7.0 | 0.00 | 0.00 | 0.00 | 47 | 985.2 |
| 20260503194203 | 49 | 237 | 3.0 | 8.0 | 0.00 | 0.00 | 0.00 | 47 | 985.3 |
| 20260503193704 | 49 | 247 | 5.0 | 9.0 | 0.00 | 0.00 | 0.00 | 48 | 985.4 |
| 20260503193203 | 49 | 227 | 3.0 | 6.0 | 0.00 | 0.00 | 0.00 | 48 | 985.4 |
| 20260503192703 | 49 | 102 | 2.0 | 5.0 | 0.00 | 0.00 | 0.00 | 47 | 985.5 |
| 20260503192204 | 50 | 92 | 3.0 | 6.0 | 0.00 | 0.00 | 0.00 | 47 | 985.5 |
| 20260503191704 | 50 | 174 | 2.0 | 7.0 | 0.00 | 0.00 | 0.00 | 47 | 985.6 |
| 20260503191204 | 50 | 221 | 3.0 | 7.0 | 0.00 | 0.00 | 0.00 | 47 | 985.5 |
| 20260503190703 | 50 | 248 | 3.0 | 7.0 | 0.00 | 0.00 | 0.00 | 47 | 985.5 |
| 20260503190204 | 49 | 252 | 3.0 | 8.0 | 0.00 | 0.00 | 0.00 | 47 | 985.6 |
| 20260503185703 | 50 | 108 | 3.0 | 6.0 | 0.00 | 0.00 | 0.00 | 46 | 985.6 |
| 20260503185204 | 50 | 111 | 3.0 | 5.0 | 0.00 | 0.00 | 0.00 | 46 | 985.7 |
| 20260503184704 | 50 | 231 | 3.0 | 8.0 | 0.00 | 0.00 | 0.00 | 46 | 985.7 |
| 20260503184204 | 50 | 109 | 3.0 | 9.0 | 0.00 | 0.00 | 0.00 | 47 | 985.8 |
| 20260503183704 | 50 | 178 | 2.0 | 6.0 | 0.00 | 0.00 | 0.00 | 47 | 985.7 |
| 20260503183203 | 50 | 115 | 2.0 | 9.0 | 0.00 | 0.00 | 0.00 | 46 | 985.8 |
| 20260503182704 | 50 | 229 | 3.0 | 8.0 | 0.00 | 0.00 | 0.00 | 45 | 985.8 |
| 20260503182204 | 49 | 233 | 5.0 | 9.0 | 0.00 | 0.00 | 0.00 | 46 | 985.8 |
| 20260503181703 | 49 | 190 | 3.0 | 8.0 | 0.00 | 0.00 | 0.00 | 47 | 985.8 |
| 20260503180703 | 48 | 200 | 3.0 | 13.0 | 0.00 | 0.00 | 0.00 | 47 | 985.8 |
| 20260503180203 | 49 | 115 | 5.0 | 9.0 | 0.00 | 0.00 | 0.00 | 47 | 985.8 |
| 20260503175203 | 49 | 229 | 3.0 | 7.0 | 0.00 | 0.00 | 0.00 | 48 | 985.9 |
| 20260503174703 | 49 | 201 | 3.0 | 7.0 | 0.00 | 0.00 | 0.00 | 47 | 985.9 |
| 20260503174204 | 48 | 182 | 2.0 | 6.0 | 0.00 | 0.00 | 0.00 | 47 | 985.9 |
| 20260503173703 | 48 | 141 | 2.0 | 6.0 | 0.00 | 0.00 | 0.00 | 47 | 985.8 |
| 20260503173203 | 48 | 203 | 6.0 | 10.0 | 0.00 | 0.00 | 0.00 | 47 | 985.9 |
| 20260503172203 | 47 | 108 | 2.0 | 9.0 | 0.00 | 0.00 | 0.00 | 49 | 986.0 |
| 20260503171203 | 48 | 154 | 2.0 | 7.0 | 0.00 | 0.00 | 0.00 | 48 | 986.0 |
| 20260503170704 | 48 | 233 | 3.0 | 8.0 | 0.00 | 0.00 | 0.00 | 48 | 985.9 |
| 20260503160204 | 53 | 127 | 5.0 | 9.0 | 0.00 | 0.00 | 0.00 | 44 | 986.1 |
| 20260503150704 | 48 | 92 | 3.0 | 9.0 | 0.00 | 0.00 | 0.00 | 47 | 986.3 |
| 20260503150205 | 49 | 193 | 2.0 | 9.0 | 0.00 | 0.00 | 0.00 | 45 | 986.4 |
| 20260503140204 | 47 | 163 | 2.0 | 7.0 | 0.00 | 0.00 | 0.00 | 65 | 986.9 |
| 20260503131204 | 45 | 174 | 2.0 | 7.0 | 0.00 | 0.00 | 0.00 | 70 | 987.1 |
| 20260503130703 | 45 | 187 | 2.0 | 5.0 | 0.00 | 0.00 | 0.00 | 72 | 987.2 |
| 20260503130204 | 45 | 214 | 2.0 | 6.0 | 0.00 | 0.00 | 0.00 | 72 | 987.2 |
| 20260503120203 | 41 | 208 | 1.0 | 3.0 | 0.00 | 0.00 | 0.00 | 86 | 987.2 |
| 20260503110703 | 39 | 106 | 0.0 | 2.0 | 0.00 | 0.00 | 0.00 | 97 | 987.0 |
| 20260503110204 | 39 | 101 | 1.0 | 2.0 | 0.00 | 0.00 | 0.00 | 97 | 987.0 |